If you wish to contribute or participate in the discussions about articles you are invited to join SKYbrary as a registered user

 Actions

Osan Air Base

From SKYbrary Wiki

RKSO /
Revision as of 21:42, 25 June 2020 by Admin (talk | contribs) (Text replacement - "===test===" to "")
(diff) ← Older revision | Latest revision (diff) | Newer revision → (diff)
Airport
ICAO: RKSO – IATA: OSN
Summary
Name Osan Air Base
Region
Territory South Korea KR.gif
Location , Kyonggi-do
Serving Osan
Elevation 11.582 m
38 ft
38 ft11.582 m
Type large airport
Coordinates 37° 5' 26.22" N, 127° 1' 46.54" E
Runways
Designator Length Width Surface ROPS
9/27 2744 m9,002.625 ft
46 m150.919 ft
CON yes/yes


METAR
Observation RKSO 272122Z 00000KT 1 1/2SM BR OVC140 10/10 A3018 RMK SLP223
Station Osan Ab
Date/Time 27 October 2020 21:22:00
Wind direction
Wind speed 00 kts
Lowest cloud amount overcast
Temperature 10°C
Dew point 10°C
Humidity 100%
QNH hPa
Weather condition mist